sensor_id;sensor_type;location;lat;lon;timestamp;pressure;altitude;pressure_sealevel;temperature;humidity
33280;BME280;20403;43.114;12.434;2023-02-02T00:02:00;99793.56;;;4.54;100.00
33280;BME280;20403;43.114;12.434;2023-02-02T00:04:31;99793.88;;;4.67;100.00
33280;BME280;20403;43.114;12.434;2023-02-02T00:06:57;99788.25;;;4.55;100.00
33280;BME280;20403;43.114;12.434;2023-02-02T00:09:24;99794.53;;;4.53;100.00
33280;BME280;20403;43.114;12.434;2023-02-02T00:11:50;99786.97;;;4.43;100.00
33280;BME280;20403;43.114;12.434;2023-02-02T00:14:17;99787.31;;;4.32;100.00
33280;BME280;20403;43.114;12.434;2023-02-02T00:16:45;99780.69;;;4.29;100.00
33280;BME280;20403;43.114;12.434;2023-02-02T00:19:19;99778.91;;;4.30;100.00
33280;BME280;20403;43.114;12.434;2023-02-02T00:21:46;99770.88;;;4.25;100.00
33280;BME280;20403;43.114;12.434;2023-02-02T00:24:14;99781.84;;;4.35;100.00
33280;BME280;20403;43.114;12.434;2023-02-02T00:26:43;99786.34;;;4.33;100.00
33280;BME280;20403;43.114;12.434;2023-02-02T00:29:16;99786.34;;;4.33;100.00
33280;BME280;20403;43.114;12.434;2023-02-02T00:31:41;99780.38;;;4.24;100.00
33280;BME280;20403;43.114;12.434;2023-02-02T00:34:09;99784.41;;;4.35;100.00
33280;BME280;20403;43.114;12.434;2023-02-02T00:36:35;99778.28;;;4.44;100.00
33280;BME280;20403;43.114;12.434;2023-02-02T00:39:00;99772.91;;;4.54;100.00
33280;BME280;20403;43.114;12.434;2023-02-02T00:41:26;99768.53;;;4.62;100.00
33280;BME280;20403;43.114;12.434;2023-02-02T00:43:51;99774.84;;;4.52;100.00
33280;BME280;20403;43.114;12.434;2023-02-02T00:46:38;99776.97;;;4.32;100.00
33280;BME280;20403;43.114;12.434;2023-02-02T00:49:04;99772.66;;;4.24;100.00
33280;BME280;20403;43.114;12.434;2023-02-02T00:51:29;99772.16;;;4.20;100.00
33280;BME280;20403;43.114;12.434;2023-02-02T00:53:54;99763.78;;;4.18;100.00
33280;BME280;20403;43.114;12.434;2023-02-02T00:56:20;99769.41;;;4.22;100.00
33280;BME280;20403;43.114;12.434;2023-02-02T00:58:45;99769.09;;;4.09;100.00
33280;BME280;20403;43.114;12.434;2023-02-02T01:01:15;99774.91;;;4.11;100.00
33280;BME280;20403;43.114;12.434;2023-02-02T01:03:42;99780.91;;;4.11;100.00
33280;BME280;20403;43.114;12.434;2023-02-02T01:06:07;99770.72;;;3.85;100.00
33280;BME280;20403;43.114;12.434;2023-02-02T01:08:32;99773.00;;;3.80;100.00
33280;BME280;20403;43.114;12.434;2023-02-02T01:10:58;99771.88;;;3.99;100.00
33280;BME280;20403;43.114;12.434;2023-02-02T01:13:24;99767.69;;;3.98;100.00
33280;BME280;20403;43.114;12.434;2023-02-02T01:15:55;99763.97;;;3.92;100.00
33280;BME280;20403;43.114;12.434;2023-02-02T01:18:20;99760.72;;;3.90;100.00
33280;BME280;20403;43.114;12.434;2023-02-02T01:20:46;99751.84;;;3.60;100.00
33280;BME280;20403;43.114;12.434;2023-02-02T01:23:11;99753.00;;;3.66;100.00
33280;BME280;20403;43.114;12.434;2023-02-02T01:25:37;99768.00;;;3.54;100.00
33280;BME280;20403;43.114;12.434;2023-02-02T01:28:03;99766.03;;;3.48;100.00
33280;BME280;20403;43.114;12.434;2023-02-02T01:30:28;99764.19;;;3.15;100.00
33280;BME280;20403;43.114;12.434;2023-02-02T01:32:54;99773.03;;;3.13;100.00
33280;BME280;20403;43.114;12.434;2023-02-02T01:35:19;99773.41;;;3.34;100.00
33280;BME280;20403;43.114;12.434;2023-02-02T01:37:44;99769.84;;;3.27;100.00
33280;BME280;20403;43.114;12.434;2023-02-02T01:40:10;99782.31;;;3.40;100.00
33280;BME280;20403;43.114;12.434;2023-02-02T01:42:36;99769.84;;;3.27;100.00
33280;BME280;20403;43.114;12.434;2023-02-02T01:45:24;99777.72;;;3.18;100.00
33280;BME280;20403;43.114;12.434;2023-02-02T01:47:53;99767.56;;;3.08;100.00
33280;BME280;20403;43.114;12.434;2023-02-02T01:50:22;99772.25;;;3.12;100.00
33280;BME280;20403;43.114;12.434;2023-02-02T01:52:51;99771.75;;;3.09;100.00
33280;BME280;20403;43.114;12.434;2023-02-02T01:55:19;99772.25;;;3.21;100.00
33280;BME280;20403;43.114;12.434;2023-02-02T02:00:18;99787.47;;;2.98;100.00
33280;BME280;20403;43.114;12.434;2023-02-02T02:02:51;99778.34;;;3.03;100.00
33280;BME280;20403;43.114;12.434;2023-02-02T02:05:23;99775.09;;;3.01;100.00
33280;BME280;20403;43.114;12.434;2023-02-02T02:07:52;99773.78;;;2.97;100.00
33280;BME280;20403;43.114;12.434;2023-02-02T02:10:19;99769.63;;;3.04;100.00
33280;BME280;20403;43.114;12.434;2023-02-02T02:12:46;99772.19;;;2.96;100.00
33280;BME280;20403;43.114;12.434;2023-02-02T02:15:12;99768.50;;;3.07;100.00
33280;BME280;20403;43.114;12.434;2023-02-02T02:18:24;99764.56;;;3.29;100.00
33280;BME280;20403;43.114;12.434;2023-02-02T02:35:37;99754.22;;;3.21;100.00
33280;BME280;20403;43.114;12.434;2023-02-02T02:40:40;99750.97;;;3.19;100.00
33280;BME280;20403;43.114;12.434;2023-02-02T02:43:17;99752.72;;;3.02;100.00
33280;BME280;20403;43.114;12.434;2023-02-02T02:45:44;99756.22;;;2.92;100.00
33280;BME280;20403;43.114;12.434;2023-02-02T02:48:10;99760.13;;;2.97;100.00
33280;BME280;20403;43.114;12.434;2023-02-02T02:50:36;99771.19;;;2.89;100.00
33280;BME280;20403;43.114;12.434;2023-02-02T02:53:10;99771.44;;;3.12;100.00
33280;BME280;20403;43.114;12.434;2023-02-02T02:55:45;99767.00;;;3.39;100.00
33280;BME280;20403;43.114;12.434;2023-02-02T02:58:19;99757.94;;;3.34;100.00
33280;BME280;20403;43.114;12.434;2023-02-02T03:03:51;99762.97;;;3.36;100.00
33280;BME280;20403;43.114;12.434;2023-02-02T03:06:28;99756.84;;;3.53;100.00
33280;BME280;20403;43.114;12.434;2023-02-02T03:09:05;99758.13;;;3.33;100.00
33280;BME280;20403;43.114;12.434;2023-02-02T03:11:33;99768.44;;;3.33;100.00
33280;BME280;20403;43.114;12.434;2023-02-02T03:14:00;99756.03;;;3.36;100.00
33280;BME280;20403;43.114;12.434;2023-02-02T03:16:26;99750.75;;;3.54;100.00
33280;BME280;20403;43.114;12.434;2023-02-02T03:18:51;99750.25;;;3.59;100.00
33280;BME280;20403;43.114;12.434;2023-02-02T03:21:16;99742.69;;;3.66;100.00
33280;BME280;20403;43.114;12.434;2023-02-02T03:23:42;99742.69;;;3.66;100.00
33280;BME280;20403;43.114;12.434;2023-02-02T03:26:08;99746.22;;;3.65;100.00
33280;BME280;20403;43.114;12.434;2023-02-02T03:28:33;99740.28;;;3.72;100.00
33280;BME280;20403;43.114;12.434;2023-02-02T03:30:59;99741.88;;;3.57;100.00
33280;BME280;20403;43.114;12.434;2023-02-02T03:33:26;99733.81;;;3.60;100.00
33280;BME280;20403;43.114;12.434;2023-02-02T03:35:51;99741.53;;;3.35;100.00
33280;BME280;20403;43.114;12.434;2023-02-02T03:38:17;99748.91;;;3.30;100.00
33280;BME280;20403;43.114;12.434;2023-02-02T03:40:43;99734.41;;;3.13;100.00
33280;BME280;20403;43.114;12.434;2023-02-02T03:43:09;99731.63;;;3.06;100.00
33280;BME280;20403;43.114;12.434;2023-02-02T03:45:34;99741.34;;;3.21;100.00
33280;BME280;20403;43.114;12.434;2023-02-02T03:48:02;99747.31;;;3.29;100.00
33280;BME280;20403;43.114;12.434;2023-02-02T03:50:28;99739.75;;;3.36;100.00
33280;BME280;20403;43.114;12.434;2023-02-02T03:52:54;99730.06;;;3.22;100.00
33280;BME280;20403;43.114;12.434;2023-02-02T03:55:20;99739.06;;;3.18;100.00
33280;BME280;20403;43.114;12.434;2023-02-02T03:57:45;99740.34;;;3.13;100.00
33280;BME280;20403;43.114;12.434;2023-02-02T04:00:11;99737.47;;;3.25;100.00
33280;BME280;20403;43.114;12.434;2023-02-02T04:02:36;99739.19;;;3.00;100.00
33280;BME280;20403;43.114;12.434;2023-02-02T04:05:02;99736.59;;;3.00;100.00
33280;BME280;20403;43.114;12.434;2023-02-02T04:07:27;99731.66;;;3.14;100.00
33280;BME280;20403;43.114;12.434;2023-02-02T04:09:53;99744.13;;;2.85;100.00
33280;BME280;20403;43.114;12.434;2023-02-02T04:12:18;99745.28;;;2.56;100.00
33280;BME280;20403;43.114;12.434;2023-02-02T04:14:43;99744.69;;;2.62;100.00
33280;BME280;20403;43.114;12.434;2023-02-02T04:17:09;99756.75;;;2.62;100.00
33280;BME280;20403;43.114;12.434;2023-02-02T04:19:35;99747.94;;;2.72;100.00
33280;BME280;20403;43.114;12.434;2023-02-02T04:22:01;99748.28;;;2.78;100.00
33280;BME280;20403;43.114;12.434;2023-02-02T04:24:26;99747.94;;;2.72;100.00
33280;BME280;20403;43.114;12.434;2023-02-02T04:26:51;99748.72;;;2.65;100.00
33280;BME280;20403;43.114;12.434;2023-02-02T04:29:17;99746.72;;;2.50;100.00
33280;BME280;20403;43.114;12.434;2023-02-02T04:31:42;99745.38;;;2.38;100.00
33280;BME280;20403;43.114;12.434;2023-02-02T04:34:07;99753.44;;;2.43;100.00
33280;BME280;20403;43.114;12.434;2023-02-02T04:36:33;99754.66;;;2.65;100.00
33280;BME280;20403;43.114;12.434;2023-02-02T04:38:58;99768.09;;;2.43;100.00
33280;BME280;20403;43.114;12.434;2023-02-02T04:41:24;99764.84;;;2.41;100.00
33280;BME280;20403;43.114;12.434;2023-02-02T04:43:49;99775.38;;;2.56;100.00
33280;BME280;20403;43.114;12.434;2023-02-02T04:46:15;99771.56;;;2.68;100.00
33280;BME280;20403;43.114;12.434;2023-02-02T04:48:42;99773.16;;;2.61;100.00
33280;BME280;20403;43.114;12.434;2023-02-02T04:51:12;99778.41;;;2.51;100.00
33280;BME280;20403;43.114;12.434;2023-02-02T04:53:39;99777.41;;;2.44;100.00
33280;BME280;20403;43.114;12.434;2023-02-02T06:58:33;99833.22;;;1.99;100.00
33280;BME280;20403;43.114;12.434;2023-02-02T07:01:07;99839.75;;;1.94;100.00
33280;BME280;20403;43.114;12.434;2023-02-02T07:03:34;99852.25;;;2.06;100.00
33280;BME280;20403;43.114;12.434;2023-02-02T07:06:13;99853.31;;;2.22;100.00
33280;BME280;20403;43.114;12.434;2023-02-02T07:08:38;99850.38;;;2.17;100.00
33280;BME280;20403;43.114;12.434;2023-02-02T07:11:04;99846.13;;;2.07;100.00
33280;BME280;20403;43.114;12.434;2023-02-02T07:13:29;99858.31;;;2.05;100.00
33280;BME280;20403;43.114;12.434;2023-02-02T07:15:55;99855.38;;;2.18;100.00
33280;BME280;20403;43.114;12.434;2023-02-02T07:18:21;99873.88;;;2.40;100.00
33280;BME280;20403;43.114;12.434;2023-02-02T07:20:47;99875.22;;;2.44;100.00
33280;BME280;20403;43.114;12.434;2023-02-02T07:23:12;99873.06;;;2.57;100.00
33280;BME280;20403;43.114;12.434;2023-02-02T07:25:37;99863.56;;;2.58;100.00
33280;BME280;20403;43.114;12.434;2023-02-02T07:28:03;99864.44;;;2.66;100.00
33280;BME280;20403;43.114;12.434;2023-02-02T07:30:28;99864.19;;;2.78;100.00
33280;BME280;20403;43.114;12.434;2023-02-02T07:32:54;99857.16;;;2.88;100.00
33280;BME280;20403;43.114;12.434;2023-02-02T07:35:20;99852.38;;;3.01;100.00
33280;BME280;20403;43.114;12.434;2023-02-02T07:37:51;99843.34;;;3.40;100.00
33280;BME280;20403;43.114;12.434;2023-02-02T07:40:16;99835.06;;;3.87;100.00
33280;BME280;20403;43.114;12.434;2023-02-02T07:42:45;99839.38;;;4.68;100.00
33280;BME280;20403;43.114;12.434;2023-02-02T07:45:10;99841.22;;;4.99;100.00
33280;BME280;20403;43.114;12.434;2023-02-02T07:47:35;99846.25;;;5.40;100.00
33280;BME280;20403;43.114;12.434;2023-02-02T07:50:01;99844.81;;;5.68;100.00
33280;BME280;20403;43.114;12.434;2023-02-02T07:52:28;99840.78;;;5.89;100.00
33280;BME280;20403;43.114;12.434;2023-02-02T07:54:53;99836.41;;;5.89;100.00
33280;BME280;20403;43.114;12.434;2023-02-02T07:57:18;99844.91;;;5.75;100.00
33280;BME280;20403;43.114;12.434;2023-02-02T07:59:44;99845.91;;;5.74;100.00
33280;BME280;20403;43.114;12.434;2023-02-02T08:02:09;99846.91;;;5.65;100.00
33280;BME280;20403;43.114;12.434;2023-02-02T08:04:35;99855.09;;;5.77;100.00
33280;BME280;20403;43.114;12.434;2023-02-02T08:07:00;99851.44;;;5.71;100.00
33280;BME280;20403;43.114;12.434;2023-02-02T08:09:25;99858.81;;;5.43;100.00
33280;BME280;20403;43.114;12.434;2023-02-02T08:11:51;99865.25;;;5.55;100.00
33280;BME280;20403;43.114;12.434;2023-02-02T08:14:16;99866.59;;;5.74;100.00
33280;BME280;20403;43.114;12.434;2023-02-02T08:16:42;99871.22;;;5.87;100.00
33280;BME280;20403;43.114;12.434;2023-02-02T08:19:09;99878.44;;;6.00;100.00
33280;BME280;20403;43.114;12.434;2023-02-02T08:21:34;99890.50;;;6.07;100.00
33280;BME280;20403;43.114;12.434;2023-02-02T08:24:00;99889.63;;;5.92;100.00
33280;BME280;20403;43.114;12.434;2023-02-02T08:26:28;99891.22;;;6.01;100.00
33280;BME280;20403;43.114;12.434;2023-02-02T08:28:56;99894.31;;;6.20;100.00
33280;BME280;20403;43.114;12.434;2023-02-02T08:31:28;99903.06;;;6.19;100.00
33280;BME280;20403;43.114;12.434;2023-02-02T08:33:54;99913.94;;;6.14;100.00
33280;BME280;20403;43.114;12.434;2023-02-02T08:36:21;99919.63;;;6.09;100.00
33280;BME280;20403;43.114;12.434;2023-02-02T08:38:47;99908.94;;;6.13;100.00
33280;BME280;20403;43.114;12.434;2023-02-02T08:41:16;99906.09;;;6.45;100.00
33280;BME280;20403;43.114;12.434;2023-02-02T08:43:43;99899.63;;;6.79;100.00
33280;BME280;20403;43.114;12.434;2023-02-02T08:46:10;99891.69;;;7.10;100.00
33280;BME280;20403;43.114;12.434;2023-02-02T08:48:37;99897.22;;;7.52;100.00
33280;BME280;20403;43.114;12.434;2023-02-02T08:51:04;99895.09;;;7.77;100.00
33280;BME280;20403;43.114;12.434;2023-02-02T08:53:30;99886.66;;;8.11;100.00
33280;BME280;20403;43.114;12.434;2023-02-02T08:56:00;99892.03;;;8.31;100.00
33280;BME280;20403;43.114;12.434;2023-02-02T08:58:27;99893.06;;;8.58;100.00
33280;BME280;20403;43.114;12.434;2023-02-02T09:00:53;99893.59;;;8.75;100.00
33280;BME280;20403;43.114;12.434;2023-02-02T09:03:18;99899.41;;;8.77;100.00
33280;BME280;20403;43.114;12.434;2023-02-02T09:05:43;99905.94;;;8.67;100.00
33280;BME280;20403;43.114;12.434;2023-02-02T09:08:09;99895.56;;;8.73;100.00
33280;BME280;20403;43.114;12.434;2023-02-02T09:10:35;99894.63;;;8.81;100.00
33280;BME280;20403;43.114;12.434;2023-02-02T09:13:01;99895.88;;;8.92;100.00
33280;BME280;20403;43.114;12.434;2023-02-02T09:15:27;99897.81;;;9.11;100.00
33280;BME280;20403;43.114;12.434;2023-02-02T09:17:52;99907.75;;;9.36;100.00
33280;BME280;20403;43.114;12.434;2023-02-02T09:20:18;99907.63;;;9.57;100.00
33280;BME280;20403;43.114;12.434;2023-02-02T09:22:43;99903.06;;;9.66;100.00
33280;BME280;20403;43.114;12.434;2023-02-02T09:25:09;99895.25;;;9.66;100.00
33280;BME280;20403;43.114;12.434;2023-02-02T09:27:37;99900.69;;;9.71;100.00
33280;BME280;20403;43.114;12.434;2023-02-02T09:30:06;99895.03;;;9.67;100.00
33280;BME280;20403;43.114;12.434;2023-02-02T09:32:31;99899.59;;;9.59;100.00
33280;BME280;20403;43.114;12.434;2023-02-02T09:34:57;99909.34;;;9.92;100.00
33280;BME280;20403;43.114;12.434;2023-02-02T09:37:25;99906.94;;;9.97;100.00
33280;BME280;20403;43.114;12.434;2023-02-02T09:39:50;99901.19;;;10.35;100.00
33280;BME280;20403;43.114;12.434;2023-02-02T09:45:06;99913.16;;;11.09;100.00
33280;BME280;20403;43.114;12.434;2023-02-02T09:47:40;99912.53;;;11.20;100.00
33280;BME280;20403;43.114;12.434;2023-02-02T09:55:36;99934.34;;;11.46;100.00
33280;BME280;20403;43.114;12.434;2023-02-02T09:58:27;99933.69;;;10.99;100.00
33280;BME280;20403;43.114;12.434;2023-02-02T10:01:15;99937.72;;;10.68;100.00
33280;BME280;20403;43.114;12.434;2023-02-02T10:03:52;99935.91;;;10.88;100.00
33280;BME280;20403;43.114;12.434;2023-02-02T10:06:40;99927.59;;;11.25;100.00
33280;BME280;20403;43.114;12.434;2023-02-02T10:09:27;99924.75;;;11.33;100.00
33280;BME280;20403;43.114;12.434;2023-02-02T10:14:34;99917.81;;;11.07;100.00
33280;BME280;20403;43.114;12.434;2023-02-02T10:19:47;99914.81;;;10.77;100.00
33280;BME280;20403;43.114;12.434;2023-02-02T10:22:23;99917.84;;;10.80;100.00
33280;BME280;20403;43.114;12.434;2023-02-02T10:24:51;99913.81;;;10.98;100.00
33280;BME280;20403;43.114;12.434;2023-02-02T10:27:33;99913.97;;;11.16;100.00
33280;BME280;20403;43.114;12.434;2023-02-02T10:30:03;99896.72;;;10.95;100.00
33280;BME280;20403;43.114;12.434;2023-02-02T10:32:50;99894.56;;;10.72;100.00
33280;BME280;20403;43.114;12.434;2023-02-02T10:35:41;99889.75;;;10.69;100.00
33280;BME280;20403;43.114;12.434;2023-02-02T10:40:50;99881.13;;;10.82;100.00
33280;BME280;20403;43.114;12.434;2023-02-02T10:46:30;99881.78;;;11.35;100.00
33280;BME280;20403;43.114;12.434;2023-02-02T10:49:21;99878.94;;;11.44;100.00
33280;BME280;20403;43.114;12.434;2023-02-02T10:51:58;99878.38;;;11.35;100.00
33280;BME280;20403;43.114;12.434;2023-02-02T10:57:14;99868.03;;;10.95;100.00
33280;BME280;20403;43.114;12.434;2023-02-02T11:02:33;99863.41;;;10.90;100.00
33280;BME280;20403;43.114;12.434;2023-02-02T11:04:59;99857.66;;;10.82;100.00
33280;BME280;20403;43.114;12.434;2023-02-02T11:07:42;99867.28;;;10.75;100.00
33280;BME280;20403;43.114;12.434;2023-02-02T11:10:08;99868.91;;;10.62;100.00
33280;BME280;20403;43.114;12.434;2023-02-02T11:12:36;99883.34;;;10.58;100.00
33280;BME280;20403;43.114;12.434;2023-02-02T11:15:07;99880.34;;;10.75;100.00
33280;BME280;20403;43.114;12.434;2023-02-02T11:17:33;99876.22;;;11.12;100.00
33280;BME280;20403;43.114;12.434;2023-02-02T11:19:59;99872.63;;;11.58;100.00
33280;BME280;20403;43.114;12.434;2023-02-02T11:22:33;99856.38;;;12.19;100.00
33280;BME280;20403;43.114;12.434;2023-02-02T11:25:32;99843.41;;;12.75;100.00
33280;BME280;20403;43.114;12.434;2023-02-02T11:28:12;99838.25;;;13.05;100.00
33280;BME280;20403;43.114;12.434;2023-02-02T11:30:45;99832.72;;;12.95;100.00
33280;BME280;20403;43.114;12.434;2023-02-02T11:33:24;99817.59;;;13.15;100.00
33280;BME280;20403;43.114;12.434;2023-02-02T11:36:03;99825.22;;;12.98;100.00
33280;BME280;20403;43.114;12.434;2023-02-02T11:38:29;99823.56;;;12.67;100.00
33280;BME280;20403;43.114;12.434;2023-02-02T11:41:04;99814.63;;;12.93;100.00
33280;BME280;20403;43.114;12.434;2023-02-02T11:43:57;99813.94;;;13.35;100.00
33280;BME280;20403;43.114;12.434;2023-02-02T11:46:26;99816.47;;;13.41;100.00
33280;BME280;20403;43.114;12.434;2023-02-02T11:49:03;99817.38;;;12.98;100.00
33280;BME280;20403;43.114;12.434;2023-02-02T11:51:32;99820.75;;;12.87;100.00
33280;BME280;20403;43.114;12.434;2023-02-02T11:54:06;99819.56;;;12.65;100.00
33280;BME280;20403;43.114;12.434;2023-02-02T11:56:39;99823.75;;;12.47;100.00
33280;BME280;20403;43.114;12.434;2023-02-02T11:59:29;99810.13;;;12.20;100.00
33280;BME280;20403;43.114;12.434;2023-02-02T12:04:51;99792.50;;;12.71;100.00
33280;BME280;20403;43.114;12.434;2023-02-02T12:07:27;99787.00;;;12.97;100.00
33280;BME280;20403;43.114;12.434;2023-02-02T12:10:00;99767.38;;;13.18;100.00
33280;BME280;20403;43.114;12.434;2023-02-02T12:12:48;99765.66;;;13.73;100.00
33280;BME280;20403;43.114;12.434;2023-02-02T12:18:00;99754.50;;;13.89;100.00
33280;BME280;20403;43.114;12.434;2023-02-02T12:26:20;99741.84;;;14.10;100.00
33280;BME280;20403;43.114;12.434;2023-02-02T12:28:57;99740.56;;;14.36;100.00
33280;BME280;20403;43.114;12.434;2023-02-02T12:34:36;99738.25;;;14.39;100.00
33280;BME280;20403;43.114;12.434;2023-02-02T12:37:30;99733.03;;;14.27;100.00
33280;BME280;20403;43.114;12.434;2023-02-02T12:45:56;99719.31;;;14.61;100.00
33280;BME280;20403;43.114;12.434;2023-02-02T12:48:44;99701.13;;;14.71;100.00
33280;BME280;20403;43.114;12.434;2023-02-02T12:51:34;99717.03;;;14.53;100.00
33280;BME280;20403;43.114;12.434;2023-02-02T12:57:08;99710.97;;;14.52;100.00
33280;BME280;20403;43.114;12.434;2023-02-02T13:08:01;99715.34;;;14.58;100.00
33280;BME280;20403;43.114;12.434;2023-02-02T13:10:38;99710.31;;;14.57;100.00
33280;BME280;20403;43.114;12.434;2023-02-02T13:13:30;99704.97;;;14.40;100.00
33280;BME280;20403;43.114;12.434;2023-02-02T13:16:02;99700.66;;;14.74;100.00
33280;BME280;20403;43.114;12.434;2023-02-02T13:18:34;99698.66;;;14.64;100.00
33280;BME280;20403;43.114;12.434;2023-02-02T13:21:03;99709.16;;;14.64;100.00
33280;BME280;20403;43.114;12.434;2023-02-02T13:23:36;99708.72;;;14.44;100.00
33280;BME280;20403;43.114;12.434;2023-02-02T13:26:06;99715.59;;;14.21;100.00
33280;BME280;20403;43.114;12.434;2023-02-02T13:28:42;99704.28;;;14.21;100.00
33280;BME280;20403;43.114;12.434;2023-02-02T13:31:26;99708.03;;;14.37;100.00
33280;BME280;20403;43.114;12.434;2023-02-02T13:34:10;99710.56;;;14.32;100.00
33280;BME280;20403;43.114;12.434;2023-02-02T13:36:41;99710.47;;;14.15;100.00
33280;BME280;20403;43.114;12.434;2023-02-02T13:39:15;99712.53;;;14.13;100.00
33280;BME280;20403;43.114;12.434;2023-02-02T13:41:42;99701.81;;;14.26;100.00
33280;BME280;20403;43.114;12.434;2023-02-02T13:44:17;99703.06;;;14.12;100.00
33280;BME280;20403;43.114;12.434;2023-02-02T13:46:51;99699.28;;;14.31;100.00
33280;BME280;20403;43.114;12.434;2023-02-02T13:49:30;99694.03;;;14.31;100.00
33280;BME280;20403;43.114;12.434;2023-02-02T13:52:51;99687.38;;;14.52;100.00
33280;BME280;20403;43.114;12.434;2023-02-02T14:00:49;99700.53;;;14.28;100.00
33280;BME280;20403;43.114;12.434;2023-02-02T14:03:32;99695.19;;;13.88;100.00
33280;BME280;20403;43.114;12.434;2023-02-02T14:06:08;99701.59;;;13.80;100.00
33280;BME280;20403;43.114;12.434;2023-02-02T14:08:35;99703.44;;;13.80;100.00
33280;BME280;20403;43.114;12.434;2023-02-02T14:11:16;99697.59;;;13.66;100.00
33280;BME280;20403;43.114;12.434;2023-02-02T14:13:49;99695.88;;;13.72;100.00
33280;BME280;20403;43.114;12.434;2023-02-02T14:19:01;99692.19;;;13.37;100.00
33280;BME280;20403;43.114;12.434;2023-02-02T14:23:55;99697.31;;;13.32;100.00
33280;BME280;20403;43.114;12.434;2023-02-02T14:34:27;99710.66;;;13.12;100.00
33280;BME280;20403;43.114;12.434;2023-02-02T14:45:31;99721.72;;;12.29;100.00
33280;BME280;20403;43.114;12.434;2023-02-02T14:47:59;99716.41;;;11.98;100.00
33280;BME280;20403;43.114;12.434;2023-02-02T14:53:32;99727.84;;;11.72;100.00
33280;BME280;20403;43.114;12.434;2023-02-02T14:56:12;99727.66;;;11.42;100.00
33280;BME280;20403;43.114;12.434;2023-02-02T15:03:32;99751.72;;;11.19;100.00
33280;BME280;20403;43.114;12.434;2023-02-02T15:06:30;99747.38;;;11.00;100.00
33280;BME280;20403;43.114;12.434;2023-02-02T15:28:35;99756.31;;;10.72;100.00
33280;BME280;20403;43.114;12.434;2023-02-02T15:31:48;99752.22;;;10.44;100.00
33280;BME280;20403;43.114;12.434;2023-02-02T15:37:03;99770.84;;;10.28;100.00
33280;BME280;20403;43.114;12.434;2023-02-02T15:39:33;99767.66;;;10.13;100.00
33280;BME280;20403;43.114;12.434;2023-02-02T15:42:05;99770.44;;;9.98;100.00
33280;BME280;20403;43.114;12.434;2023-02-02T15:44:50;99767.44;;;9.67;100.00
33280;BME280;20403;43.114;12.434;2023-02-02T15:47:18;99767.44;;;9.61;100.00
33280;BME280;20403;43.114;12.434;2023-02-02T15:49:47;99761.25;;;9.62;100.00
33280;BME280;20403;43.114;12.434;2023-02-02T15:52:43;99768.41;;;9.46;100.00
33280;BME280;20403;43.114;12.434;2023-02-02T15:55:21;99763.03;;;9.48;100.00
33280;BME280;20403;43.114;12.434;2023-02-02T15:57:48;99755.38;;;9.33;100.00
33280;BME280;20403;43.114;12.434;2023-02-02T16:03:10;99767.31;;;9.08;100.00
33280;BME280;20403;43.114;12.434;2023-02-02T16:05:38;99778.72;;;9.07;100.00
33280;BME280;20403;43.114;12.434;2023-02-02T16:08:28;99788.47;;;8.98;100.00
33280;BME280;20403;43.114;12.434;2023-02-02T16:11:14;99790.22;;;8.84;100.00
33280;BME280;20403;43.114;12.434;2023-02-02T16:13:43;99790.75;;;8.73;100.00
33280;BME280;20403;43.114;12.434;2023-02-02T16:16:26;99795.66;;;8.54;100.00
33280;BME280;20403;43.114;12.434;2023-02-02T16:21:27;99803.97;;;8.43;100.00
33280;BME280;20403;43.114;12.434;2023-02-02T16:23:54;99806.41;;;8.45;100.00
33280;BME280;20403;43.114;12.434;2023-02-02T16:26:24;99801.03;;;8.25;100.00
33280;BME280;20403;43.114;12.434;2023-02-02T16:28:51;99799.16;;;8.12;100.00
33280;BME280;20403;43.114;12.434;2023-02-02T16:31:17;99806.69;;;8.07;100.00
33280;BME280;20403;43.114;12.434;2023-02-02T16:33:43;99820.25;;;8.02;100.00
33280;BME280;20403;43.114;12.434;2023-02-02T16:36:27;99828.88;;;7.88;100.00
33280;BME280;20403;43.114;12.434;2023-02-02T16:38:54;99833.34;;;7.72;100.00
33280;BME280;20403;43.114;12.434;2023-02-02T16:41:32;99835.72;;;7.67;100.00
33280;BME280;20403;43.114;12.434;2023-02-02T16:44:27;99856.94;;;7.56;100.00
33280;BME280;20403;43.114;12.434;2023-02-02T16:46:53;99856.25;;;7.47;100.00
33280;BME280;20403;43.114;12.434;2023-02-02T16:49:23;99857.97;;;7.40;100.00
33280;BME280;20403;43.114;12.434;2023-02-02T16:54:31;99854.94;;;7.22;100.00
33280;BME280;20403;43.114;12.434;2023-02-02T16:57:01;99856.28;;;7.18;100.00
33280;BME280;20403;43.114;12.434;2023-02-02T16:59:30;99857.38;;;7.08;100.00
33280;BME280;20403;43.114;12.434;2023-02-02T17:02:24;99854.41;;;7.11;100.00
33280;BME280;20403;43.114;12.434;2023-02-02T17:04:59;99861.03;;;6.99;100.00
33280;BME280;20403;43.114;12.434;2023-02-02T17:07:28;99859.31;;;6.77;100.00
33280;BME280;20403;43.114;12.434;2023-02-02T17:12:41;99865.22;;;6.70;100.00
33280;BME280;20403;43.114;12.434;2023-02-02T17:17:45;99868.16;;;6.67;100.00
33280;BME280;20403;43.114;12.434;2023-02-02T17:20:15;99873.00;;;6.70;100.00
33280;BME280;20403;43.114;12.434;2023-02-02T17:22:43;99869.69;;;6.62;100.00
33280;BME280;20403;43.114;12.434;2023-02-02T17:25:18;99871.00;;;6.58;100.00
33280;BME280;20403;43.114;12.434;2023-02-02T17:27:45;99878.56;;;6.44;100.00
33280;BME280;20403;43.114;12.434;2023-02-02T17:30:16;99875.69;;;6.39;100.00
33280;BME280;20403;43.114;12.434;2023-02-02T17:32:42;99876.06;;;6.36;100.00
33280;BME280;20403;43.114;12.434;2023-02-02T17:35:19;99885.16;;;6.32;100.00
33280;BME280;20403;43.114;12.434;2023-02-02T17:37:46;99897.03;;;6.26;100.00
33280;BME280;20403;43.114;12.434;2023-02-02T17:40:13;99896.00;;;6.36;100.00